Wetterdaten: Woche 27.06.16 - 03.07.16 (KW26)
Datum Zeit Temp. A. Feuchte A. Luftdruck Regen Wind Richtung Taupunkt Windchill Windben
27.06.2016 00:00 19,4 C 77 % 1015,7 hPa 0,0 l/m 0,9 km/h N 15,3 C 19,4 C 7,2 km/h
27.06.2016 01:00 19,1 C 77 % 1015,5 hPa 0,0 l/m 4,2 km/h N 15,0 C 19,1 C 11,7 km/h
27.06.2016 02:00 18,6 C 80 % 1015,6 hPa 0,0 l/m 3,2 km/h N 15,1 C 18,6 C 10,1 km/h
27.06.2016 03:00 18,1 C 80 % 1015,3 hPa 0,0 l/m 5,0 km/h N 14,6 C 18,1 C 13,3 km/h
27.06.2016 04:00 17,7 C 80 % 1015,4 hPa 0,0 l/m 3,6 km/h N 14,3 C 17,7 C 12,9 km/h
27.06.2016 05:00 17,3 C 81 % 1015,4 hPa 0,0 l/m 5,3 km/h N 14,0 C 17,3 C 16,9 km/h
27.06.2016 06:00 17,6 C 81 % 1015,7 hPa 0,0 l/m 6,4 km/h N 14,2 C 17,3 C 18,1 km/h
27.06.2016 07:00 17,3 C 80 % 1016,4 hPa 1,3 l/m 9,4 km/h N 13,8 C 16,0 C 23,7 km/h
27.06.2016 08:00 15,9 C 82 % 1016,9 hPa 1,6 l/m 10,6 km/h N 12,8 C 13,9 C 26,2 km/h
27.06.2016 09:00 15,7 C 82 % 1017,1 hPa 2,1 l/m 8,2 km/h N 12,6 C 14,7 C 23,3 km/h
27.06.2016 10:00 17,0 C 81 % 1017,2 hPa 0,0 l/m 13,7 km/h N 13,7 C 14,0 C 32,2 km/h
27.06.2016 11:00 17,6 C 78 % 1017,3 hPa 0,0 l/m 14,6 km/h N 13,6 C 14,4 C 36,6 km/h
27.06.2016 12:00 17,4 C 78 % 1017,6 hPa 0,0 l/m 16,4 km/h N 13,5 C 13,8 C 35,0 km/h
27.06.2016 13:00 17,0 C 80 % 1017,9 hPa 0,0 l/m 12,3 km/h N 13,6 C 14,6 C 28,6 km/h
27.06.2016 14:00 17,4 C 79 % 1017,7 hPa 0,0 l/m 12,3 km/h N 13,6 C 14,9 C 31,0 km/h
27.06.2016 15:00 18,8 C 75 % 1017,0 hPa 0,0 l/m 12,0 km/h N 14,1 C 16,6 C 27,0 km/h
27.06.2016 16:00 18,9 C 73 % 1017,0 hPa 0,0 l/m 11,0 km/h N 13,9 C 17,1 C 26,9 km/h
27.06.2016 17:00 19,1 C 71 % 1016,8 hPa 0,0 l/m 9,9 km/h N 13,7 C 17,7 C 22,5 km/h
27.06.2016 18:00 18,6 C 72 % 1017,0 hPa 0,0 l/m 5,4 km/h N 13,4 C 18,6 C 18,9 km/h
27.06.2016 19:00 18,5 C 73 % 1016,8 hPa 0,0 l/m 6,1 km/h N 13,4 C 18,2 C 18,5 km/h
27.06.2016 20:00 18,3 C 74 % 1017,0 hPa 0,0 l/m 5,2 km/h N 13,7 C 18,3 C 13,7 km/h
27.06.2016 21:00 17,7 C 74 % 1017,1 hPa 0,0 l/m 7,0 km/h N 12,9 C 17,3 C 18,1 km/h
27.06.2016 22:00 17,2 C 70 % 1017,3 hPa 0,0 l/m 8,3 km/h N 11,6 C 16,2 C 18,5 km/h
27.06.2016 23:00 17,1 C 71 % 1017,3 hPa 0,0 l/m 5,9 km/h N 11,9 C 16,7 C 17,3 km/h
28.06.2016 00:00 16,9 C 75 % 1017,5 hPa 0,0 l/m 3,6 km/h N 12,3 C 16,6 C 13,3 km/h
28.06.2016 01:00 16,7 C 76 % 1017,7 hPa 0,0 l/m 5,2 km/h N 12,4 C 16,4 C 14,1 km/h
28.06.2016 02:00 15,9 C 77 % 1017,5 hPa 0,0 l/m 1,1 km/h N 12,0 C 15,9 C 8,1 km/h
28.06.2016 03:00 16,3 C 74 % 1017,2 hPa 0,0 l/m 7,5 km/h N 11,7 C 15,6 C 20,5 km/h
28.06.2016 04:00 16,8 C 68 % 1017,3 hPa 0,0 l/m 9,0 km/h N 10,9 C 15,5 C 19,7 km/h
28.06.2016 05:00 16,2 C 72 % 1017,4 hPa 0,0 l/m 4,5 km/h N 11,1 C 16,2 C 16,9 km/h
28.06.2016 06:00 16,5 C 73 % 1017,8 hPa 0,0 l/m 6,9 km/h N 11,6 C 16,1 C 18,1 km/h
28.06.2016 07:00 17,4 C 72 % 1017,7 hPa 0,0 l/m 7,0 km/h N 12,1 C 17,1 C 20,5 km/h
28.06.2016 08:00 18,9 C 68 % 1017,6 hPa 0,0 l/m 7,7 km/h N 12,8 C 18,4 C 24,1 km/h
28.06.2016 09:00 20,1 C 66 % 1017,5 hPa 0,0 l/m 8,8 km/h N 13,4 C 19,2 C 22,5 km/h
28.06.2016 10:00 21,3 C 62 % 1017,3 hPa 0,0 l/m 7,4 km/h N 13,7 C 20,9 C 21,7 km/h
28.06.2016 11:00 22,1 C 59 % 1017,3 hPa 0,0 l/m 8,4 km/h N 13,7 C 21,5 C 23,3 km/h
28.06.2016 12:00 23,1 C 55 % 1017,1 hPa 0,0 l/m 7,0 km/h N 13,6 C 22,8 C 19,7 km/h
28.06.2016 13:00 23,9 C 54 % 1016,6 hPa 0,0 l/m 6,8 km/h N 13,8 C 23,6 C 18,9 km/h
28.06.2016 14:00 24,5 C 52 % 1016,0 hPa 0,0 l/m 7,3 km/h N 13,9 C 24,3 C 20,9 km/h
28.06.2016 15:00 25,0 C 51 % 1015,5 hPa 0,0 l/m 6,6 km/h N 14,0 C 24,9 C 18,1 km/h
28.06.2016 16:00 24,4 C 54 % 1015,3 hPa 0,0 l/m 5,7 km/h N 14,4 C 24,3 C 17,7 km/h
28.06.2016 17:00 24,9 C 54 % 1015,0 hPa 0,0 l/m 5,3 km/h N 14,8 C 24,9 C 15,7 km/h
28.06.2016 18:00 25,5 C 50 % 1014,9 hPa 0,0 l/m 4,9 km/h N 14,3 C 25,5 C 16,1 km/h
28.06.2016 19:00 25,0 C 53 % 1014,9 hPa 0,0 l/m 2,7 km/h N 14,6 C 25,0 C 11,3 km/h
28.06.2016 20:00 24,4 C 55 % 1014,7 hPa 0,0 l/m 0,2 km/h N 14,7 C 24,4 C 2,8 km/h
28.06.2016 21:00 21,5 C 64 % 1015,0 hPa 0,0 l/m 0,0 km/h N 14,4 C 21,5 C 1,2 km/h
28.06.2016 22:00 19,4 C 73 % 1015,3 hPa 0,0 l/m 0,0 km/h N 14,3 C 19,4 C 1,2 km/h
28.06.2016 23:00 18,3 C 75 % 1015,1 hPa 0,0 l/m 0,0 km/h N 13,8 C 18,3 C 1,6 km/h
29.06.2016 00:00 17,2 C 78 % 1015,3 hPa 0,0 l/m 0,0 km/h N 13,2 C 17,2 C 0,0 km/h
29.06.2016 01:00 16,4 C 80 % 1015,2 hPa 0,0 l/m 0,1 km/h N 12,9 C 16,4 C 3,2 km/h
29.06.2016 02:00 15,7 C 81 % 1015,2 hPa 0,0 l/m 0,0 km/h N 12,4 C 15,7 C 0,0 km/h
29.06.2016 03:00 15,1 C 81 % 1014,8 hPa 0,0 l/m 0,2 km/h N 12,0 C 15,1 C 3,2 km/h
29.06.2016 04:00 14,5 C 82 % 1014,6 hPa 0,0 l/m 0,0 km/h N 11,4 C 14,5 C 0,0 km/h
29.06.2016 05:00 13,9 C 82 % 1014,7 hPa 0,0 l/m 0,0 km/h N 10,8 C 13,9 C 0,0 km/h
29.06.2016 06:00 14,0 C 82 % 1014,9 hPa 0,0 l/m 0,0 km/h N 11,0 C 14,0 C 0,0 km/h
29.06.2016 07:00 15,6 C 82 % 1014,8 hPa 0,0 l/m 0,0 km/h N 12,5 C 15,6 C 0,8 km/h
29.06.2016 08:00 19,4 C 78 % 1014,5 hPa 0,0 l/m 0,1 km/h N 15,4 C 19,4 C 2,4 km/h
29.06.2016 09:00 23,9 C 62 % 1014,4 hPa 0,0 l/m 0,5 km/h N 16,2 C 23,9 C 3,2 km/h
29.06.2016 10:00 26,1 C 58 % 1014,1 hPa 0,0 l/m 0,6 km/h N 17,2 C 26,1 C 4,4 km/h
29.06.2016 11:00 27,1 C 56 % 1014,0 hPa 0,0 l/m 0,6 km/h N 17,6 C 27,1 C 4,0 km/h
29.06.2016 12:00 28,2 C 52 % 1013,6 hPa 0,0 l/m 0,3 km/h N 17,3 C 28,2 C 3,6 km/h
29.06.2016 13:00 28,5 C 50 % 1013,3 hPa 0,0 l/m 2,5 km/h N 16,9 C 28,5 C 11,7 km/h
29.06.2016 14:00 29,2 C 46 % 1013,1 hPa 0,0 l/m 3,9 km/h N 16,2 C 29,2 C 13,7 km/h
29.06.2016 15:00 29,3 C 44 % 1012,9 hPa 0,0 l/m 4,8 km/h N 15,9 C 29,3 C 19,3 km/h
29.06.2016 16:00 29,0 C 45 % 1012,7 hPa 0,0 l/m 5,4 km/h N 15,7 C 29,0 C 17,7 km/h
29.06.2016 17:00 28,6 C 47 % 1012,5 hPa 0,0 l/m 5,8 km/h N 16,2 C 28,6 C 15,3 km/h
29.06.2016 18:00 29,2 C 47 % 1012,2 hPa 0,0 l/m 2,3 km/h N 16,8 C 29,2 C 9,7 km/h
29.06.2016 19:00 29,4 C 48 % 1012,1 hPa 0,0 l/m 0,6 km/h N 17,3 C 29,4 C 4,4 km/h
29.06.2016 20:00 28,3 C 52 % 1012,1 hPa 0,0 l/m 0,0 km/h N 17,4 C 28,3 C 0,4 km/h
29.06.2016 21:00 24,6 C 64 % 1012,5 hPa 0,0 l/m 0,0 km/h N 17,2 C 24,6 C 0,8 km/h
29.06.2016 22:00 21,9 C 71 % 1012,8 hPa 0,0 l/m 0,1 km/h N 16,3 C 21,9 C 1,6 km/h
29.06.2016 23:00 20,3 C 75 % 1012,8 hPa 0,0 l/m 0,0 km/h N 15,6 C 20,3 C 0,4 km/h
30.06.2016 00:00 19,2 C 78 % 1012,8 hPa 0,0 l/m 0,0 km/h N 15,2 C 19,2 C 0,0 km/h
30.06.2016 01:00 18,4 C 80 % 1012,9 hPa 0,0 l/m 0,0 km/h N 14,8 C 18,4 C 0,0 km/h
30.06.2016 02:00 17,7 C 81 % 1012,7 hPa 0,0 l/m 0,0 km/h N 14,3 C 17,7 C 0,0 km/h
30.06.2016 03:00 17,1 C 82 % 1012,7 hPa 0,0 l/m 0,0 km/h N 13,9 C 17,1 C 0,0 km/h
30.06.2016 04:00 16,8 C 82 % 1012,7 hPa 0,0 l/m 0,0 km/h N 13,7 C 16,8 C 0,0 km/h
30.06.2016 05:00 16,7 C 82 % 1012,7 hPa 0,0 l/m 0,0 km/h N 13,6 C 16,7 C 0,0 km/h
30.06.2016 06:00 17,2 C 82 % 1012,6 hPa 0,0 l/m 0,0 km/h N 14,1 C 17,2 C 0,8 km/h
30.06.2016 07:00 18,7 C 82 % 1012,3 hPa 0,0 l/m 0,0 km/h N 15,5 C 18,7 C 0,4 km/h
30.06.2016 08:00 23,1 C 74 % 1012,6 hPa 0,0 l/m 0,3 km/h N 18,1 C 23,1 C 4,0 km/h
30.06.2016 09:00 27,1 C 63 % 1012,5 hPa 0,0 l/m 0,4 km/h N 19,5 C 27,1 C 4,8 km/h
30.06.2016 10:00 29,0 C 60 % 1012,3 hPa 0,0 l/m 1,0 km/h N 20,2 C 29,0 C 6,0 km/h
30.06.2016 11:00 29,6 C 57 % 1012,2 hPa 0,0 l/m 1,3 km/h N 20,0 C 29,6 C 8,0 km/h
30.06.2016 12:00 31,1 C 47 % 1012,0 hPa 0,0 l/m 3,3 km/h N 18,3 C 31,1 C 12,5 km/h
30.06.2016 13:00 29,1 C 53 % 1012,3 hPa 0,0 l/m 3,4 km/h N 18,6 C 29,1 C 11,7 km/h
30.06.2016 14:00 29,5 C 56 % 1012,0 hPa 0,0 l/m 3,4 km/h N 19,8 C 29,5 C 11,7 km/h
30.06.2016 15:00 29,0 C 57 % 1012,2 hPa 0,0 l/m 4,2 km/h N 19,5 C 29,0 C 14,5 km/h
30.06.2016 16:00 26,7 C 67 % 1012,4 hPa 4,7 l/m 1,4 km/h N 20,0 C 26,7 C 8,1 km/h
30.06.2016 17:00 25,9 C 65 % 1012,4 hPa 0,0 l/m 2,7 km/h N 18,7 C 25,9 C 11,3 km/h
30.06.2016 18:00 25,4 C 67 % 1012,7 hPa 0,0 l/m 0,9 km/h N 18,9 C 25,4 C 7,2 km/h
30.06.2016 19:00 24,4 C 67 % 1013,1 hPa 0,0 l/m 3,7 km/h N 17,8 C 24,4 C 16,1 km/h
30.06.2016 20:00 22,9 C 72 % 1014,1 hPa 0,0 l/m 0,5 km/h N 17,6 C 22,9 C 6,8 km/h
30.06.2016 21:00 21,0 C 80 % 1014,8 hPa 1,8 l/m 1,7 km/h N 17,3 C 21,0 C 9,7 km/h
30.06.2016 22:00 19,9 C 81 % 1014,7 hPa 1,6 l/m 0,4 km/h N 16,5 C 19,9 C 4,4 km/h
30.06.2016 23:00 19,3 C 81 % 1015,0 hPa 0,0 l/m 0,1 km/h N 16,0 C 19,3 C 2,0 km/h
01.07.2016 00:00 19,1 C 82 % 1015,1 hPa 0,0 l/m 0,2 km/h N 15,9 C 19,1 C 2,8 km/h
01.07.2016 01:00 18,8 C 82 % 1014,8 hPa 0,0 l/m 0,5 km/h N 15,6 C 18,8 C 4,0 km/h
01.07.2016 02:00 18,4 C 82 % 1014,9 hPa 0,0 l/m 0,0 km/h N 15,2 C 18,4 C 0,0 km/h
01.07.2016 03:00 17,7 C 82 % 1015,2 hPa 0,0 l/m 0,0 km/h N 14,6 C 17,7 C 0,0 km/h
01.07.2016 04:00 17,2 C 82 % 1015,7 hPa 0,0 l/m 0,0 km/h N 14,1 C 17,2 C 0,0 km/h
01.07.2016 05:00 17,3 C 82 % 1015,9 hPa 0,0 l/m 0,0 km/h N 14,1 C 17,3 C 0,4 km/h
01.07.2016 06:00 18,3 C 81 % 1016,2 hPa 0,0 l/m 0,0 km/h N 14,9 C 18,3 C 0,8 km/h
01.07.2016 07:00 18,8 C 81 % 1016,5 hPa 0,0 l/m 0,3 km/h N 15,5 C 18,8 C 2,8 km/h
01.07.2016 08:00 19,9 C 82 % 1017,0 hPa 0,0 l/m 0,3 km/h N 16,7 C 19,9 C 2,4 km/h
01.07.2016 09:00 22,0 C 75 % 1017,0 hPa 0,0 l/m 5,4 km/h N 17,3 C 21,8 C 14,9 km/h
01.07.2016 10:00 23,9 C 68 % 1017,2 hPa 0,0 l/m 7,1 km/h N 17,6 C 23,7 C 16,1 km/h
01.07.2016 11:00 25,3 C 64 % 1017,2 hPa 0,0 l/m 5,5 km/h N 17,9 C 25,3 C 12,1 km/h
01.07.2016 12:00 26,1 C 59 % 1016,8 hPa 0,0 l/m 4,3 km/h N 17,5 C 26,1 C 13,3 km/h
01.07.2016 13:00 27,3 C 57 % 1016,4 hPa 0,0 l/m 4,4 km/h N 18,0 C 27,3 C 14,1 km/h
01.07.2016 14:00 28,1 C 53 % 1016,0 hPa 0,0 l/m 2,8 km/h N 17,5 C 28,1 C 11,3 km/h
01.07.2016 15:00 28,7 C 52 % 1015,5 hPa 0,0 l/m 1,7 km/h N 17,7 C 28,7 C 10,5 km/h
01.07.2016 16:00 28,8 C 51 % 1015,0 hPa 0,0 l/m 0,9 km/h N 17,7 C 28,8 C 6,4 km/h
01.07.2016 17:00 28,8 C 52 % 1014,7 hPa 0,0 l/m 0,4 km/h N 17,9 C 28,8 C 3,6 km/h
01.07.2016 18:00 29,9 C 47 % 1014,6 hPa 0,0 l/m 0,8 km/h N 17,3 C 29,9 C 6,4 km/h
01.07.2016 19:00 29,5 C 49 % 1014,6 hPa 0,0 l/m 0,3 km/h N 17,5 C 29,5 C 4,0 km/h
01.07.2016 20:00 28,1 C 52 % 1014,7 hPa 0,0 l/m 0,0 km/h N 17,2 C 28,1 C 2,0 km/h
01.07.2016 21:00 25,2 C 60 % 1015,0 hPa 0,0 l/m 0,0 km/h N 16,9 C 25,2 C 0,4 km/h
01.07.2016 22:00 22,6 C 69 % 1015,2 hPa 0,0 l/m 0,0 km/h N 16,7 C 22,6 C 0,0 km/h
01.07.2016 23:00 20,6 C 76 % 1015,2 hPa 0,0 l/m 0,0 km/h N 16,2 C 20,6 C 0,0 km/h
02.07.2016 00:00 19,5 C 78 % 1015,1 hPa 0,0 l/m 0,0 km/h N 15,6 C 19,5 C 0,0 km/h
02.07.2016 01:00 18,6 C 80 % 1014,7 hPa 0,0 l/m 0,0 km/h N 15,0 C 18,6 C 0,0 km/h
02.07.2016 02:00 18,1 C 81 % 1014,4 hPa 0,0 l/m 0,1 km/h N 14,7 C 18,1 C 1,2 km/h
02.07.2016 03:00 17,7 C 82 % 1013,8 hPa 0,0 l/m 0,0 km/h N 14,5 C 17,7 C 0,0 km/h
02.07.2016 04:00 16,9 C 82 % 1013,9 hPa 0,0 l/m 0,0 km/h N 13,8 C 16,9 C 0,4 km/h
02.07.2016 05:00 16,5 C 82 % 1013,6 hPa 0,0 l/m 0,0 km/h N 13,4 C 16,5 C 0,8 km/h
02.07.2016 06:00 17,0 C 82 % 1013,6 hPa 0,0 l/m 0,0 km/h N 13,9 C 17,0 C 0,0 km/h
02.07.2016 07:00 18,3 C 81 % 1013,6 hPa 0,0 l/m 0,0 km/h N 15,0 C 18,3 C 1,2 km/h
02.07.2016 08:00 21,8 C 80 % 1013,4 hPa 0,0 l/m 0,1 km/h N 18,1 C 21,8 C 2,8 km/h
02.07.2016 09:00 26,1 C 67 % 1013,1 hPa 0,0 l/m 0,5 km/h N 19,5 C 26,1 C 4,8 km/h
02.07.2016 10:00 28,6 C 61 % 1012,6 hPa 0,0 l/m 0,9 km/h N 20,3 C 28,6 C 6,8 km/h
02.07.2016 11:00 30,7 C 57 % 1012,1 hPa 0,0 l/m 1,9 km/h N 21,1 C 30,7 C 9,7 km/h
02.07.2016 12:00 31,8 C 52 % 1011,5 hPa 0,0 l/m 2,6 km/h N 20,6 C 31,8 C 10,0 km/h
02.07.2016 13:00 32,3 C 49 % 1010,8 hPa 0,0 l/m 2,5 km/h N 20,1 C 32,3 C 12,5 km/h
02.07.2016 14:00 31,3 C 46 % 1010,1 hPa 0,0 l/m 2,1 km/h N 18,4 C 31,3 C 9,7 km/h
02.07.2016 15:00 30,9 C 44 % 1009,5 hPa 0,0 l/m 2,1 km/h N 17,3 C 30,9 C 8,1 km/h
02.07.2016 16:00 28,2 C 54 % 1010,1 hPa 0,0 l/m 1,4 km/h N 17,8 C 28,2 C 8,5 km/h
02.07.2016 17:00 24,9 C 64 % 1009,8 hPa 0,0 l/m 0,8 km/h N 17,6 C 24,9 C 4,8 km/h
02.07.2016 18:00 24,2 C 68 % 1010,4 hPa 0,0 l/m 5,5 km/h N 17,9 C 24,2 C 14,1 km/h
02.07.2016 19:00 23,8 C 70 % 1010,7 hPa 0,0 l/m 2,7 km/h N 17,9 C 23,8 C 9,3 km/h
02.07.2016 20:00 23,1 C 73 % 1011,8 hPa 16,1 l/m 2,9 km/h N 18,0 C 23,1 C 10,4 km/h
02.07.2016 21:00 20,7 C 81 % 1012,6 hPa 2,9 l/m 8,4 km/h N 17,3 C 19,6 C 20,5 km/h
02.07.2016 22:00 20,0 C 81 % 1013,9 hPa 0,3 l/m 2,0 km/h N 16,6 C 20,0 C 10,0 km/h
02.07.2016 23:00 19,5 C 81 % 1014,4 hPa 3,6 l/m 3,2 km/h N 16,2 C 19,5 C 10,1 km/h
03.07.2016 00:00 18,8 C 82 % 1014,7 hPa 1,3 l/m 6,4 km/h N 15,6 C 18,6 C 16,5 km/h
03.07.2016 01:00 18,4 C 82 % 1015,3 hPa 0,0 l/m 8,3 km/h N 15,2 C 17,5 C 19,7 km/h
03.07.2016 02:00 18,2 C 82 % 1015,9 hPa 0,0 l/m 8,0 km/h N 15,1 C 17,5 C 20,9 km/h
03.07.2016 03:00 16,8 C 82 % 1016,4 hPa 0,0 l/m 8,1 km/h N 13,7 C 16,0 C 28,2 km/h
03.07.2016 04:00 16,1 C 82 % 1017,2 hPa 0,0 l/m 8,9 km/h N 13,0 C 14,9 C 27,4 km/h
03.07.2016 05:00 15,6 C 81 % 1017,7 hPa 0,0 l/m 12,9 km/h N 12,3 C 12,6 C 30,6 km/h
03.07.2016 06:00 15,4 C 80 % 1018,3 hPa 0,0 l/m 9,6 km/h N 12,0 C 13,8 C 31,4 km/h
03.07.2016 07:00 15,4 C 79 % 1018,7 hPa 0,0 l/m 9,6 km/h N 11,8 C 13,8 C 28,2 km/h
03.07.2016 08:00 15,6 C 78 % 1019,2 hPa 0,0 l/m 10,5 km/h N 11,8 C 13,6 C 26,5 km/h
03.07.2016 09:00 15,6 C 79 % 1019,8 hPa 0,5 l/m 9,7 km/h N 11,9 C 13,9 C 25,0 km/h
03.07.2016 10:00 15,5 C 81 % 1019,9 hPa 0,0 l/m 6,4 km/h N 12,3 C 15,6 C 19,3 km/h
03.07.2016 11:00 16,3 C 79 % 1020,1 hPa 0,0 l/m 8,0 km/h N 12,6 C 15,5 C 21,7 km/h
03.07.2016 12:00 17,3 C 77 % 1020,0 hPa 0,0 l/m 8,9 km/h N 13,1 C 16,1 C 23,3 km/h
03.07.2016 13:00 17,3 C 77 % 1019,8 hPa 0,0 l/m 5,6 km/h N 13,3 C 17,4 C 17,7 km/h
03.07.2016 14:00 17,8 C 75 % 1019,3 hPa 0,0 l/m 4,8 km/h N 13,2 C 17,8 C 16,9 km/h
03.07.2016 15:00 18,4 C 75 % 1019,2 hPa 0,0 l/m 1,6 km/h N 13,7 C 18,4 C 15,3 km/h
03.07.2016 16:00 19,6 C 71 % 1018,8 hPa 0,0 l/m 1,6 km/h N 14,2 C 19,6 C 12,0 km/h
03.07.2016 17:00 21,0 C 60 % 1018,3 hPa 0,3 l/m 6,4 km/h N 12,8 C 20,8 C 19,3 km/h
03.07.2016 18:00 21,8 C 56 % 1018,3 hPa 0,0 l/m 6,4 km/h N 12,4 C 21,8 C 20,1 km/h
03.07.2016 19:00 21,5 C 56 % 1018,4 hPa 0,0 l/m 4,8 km/h N 12,2 C 21,5 C 19,3 km/h
03.07.2016 20:00 19,8 C 61 % 1018,9 hPa 0,0 l/m 3,2 km/h N 11,9 C 19,8 C 13,7 km/h
03.07.2016 21:00 19,5 C 59 % 1019,6 hPa 0,0 l/m 4,8 km/h N 11,3 C 19,5 C 18,5 km/h
03.07.2016 22:00 19,4 C 59 % 1020,0 hPa 0,0 l/m 4,8 km/h N 11,2 C 19,4 C 17,7 km/h
03.07.2016 23:00 18,8 C 62 % 1020,7 hPa 0,0 l/m 5,6 km/h N 11,2 C 18,8 C 17,7 km/h
Min-Datum _ 29.06.16 29.06.16 02.07.16 - 28.06.16 - 29.06.16 03.07.16 28.06.16
_ Min-Zeit 05:45 15:00 15:30 - 20:30 - 05:45 05:30 20:30
Minimum _ 13,7 C 42 % 1009,4 hPa - 0,0 km/h - 10,7 C 12,4 C 0,0 km/h
Max-Datum _ 02.07.16 27.06.16 03.07.16 02.07.16 27.06.16 - 02.07.16 02.07.16 27.06.16
_ Max-Zeit 14:00 08:00 23:30 20:30 12:15 - 11:15 13:45 12:45
Maximum _ 32,7 C 82 % 1020,8 hPa 16,1 l/m 17,8 km/h
N
- 21,6 C 32,6 C 40,2 km/h
N
Durchschnitt _ 21,3 C 69 % 1015,2 hPa #38,0 l/m 3,7 km/h N 15,1 C 21,0 C 11,5 km/h